createdAt,value
2018-12-05T00:00:10.228Z,25.52
2018-12-05T00:05:14.035Z,30.45
2018-12-05T00:10:17.159Z,37.25
2018-12-05T00:15:20.502Z,18.92
2018-12-05T00:20:23.645Z,18.27
2018-12-05T00:25:26.786Z,29.02
2018-12-05T00:30:29.861Z,46.25
2018-12-05T00:35:33.262Z,38.48
2018-12-05T00:40:36.372Z,26.95
2018-12-05T00:45:39.642Z,32.73
2018-12-05T00:50:42.843Z,31.27
2018-12-05T00:55:46.108Z,33.75
2018-12-05T01:00:49.327Z,28.15
2018-12-05T01:05:52.464Z,25.32
2018-12-05T01:10:55.735Z,32.35
2018-12-05T01:15:58.982Z,73.50
2018-12-05T01:21:02.535Z,39.50
2018-12-05T01:26:05.833Z,19.32
2018-12-05T01:31:08.959Z,30.90
2018-12-05T01:36:12.684Z,30.32
2018-12-05T01:41:16.670Z,29.27
2018-12-05T01:46:19.794Z,32.33
2018-12-05T01:51:22.927Z,22.93
2018-12-05T01:56:26.979Z,28.10
2018-12-05T02:01:30.184Z,28.75
2018-12-05T02:06:33.560Z,36.33
2018-12-05T02:11:37.648Z,42.45
2018-12-05T02:16:41.480Z,45.25
2018-12-05T02:21:44.620Z,49.83
2018-12-05T02:26:47.717Z,47.98
2018-12-05T02:31:50.868Z,52.27
2018-12-05T02:36:53.986Z,54.38
2018-12-05T02:41:57.179Z,53.55
2018-12-05T02:47:00.430Z,53.10
2018-12-05T02:52:03.727Z,68.60
2018-12-05T02:57:07.312Z,59.95
2018-12-05T03:02:10.386Z,58.90
2018-12-05T03:07:14.581Z,62.53
2018-12-05T03:12:17.882Z,62.48
2018-12-05T03:17:21.125Z,63.68
2018-12-05T03:22:24.169Z,60.28
2018-12-05T03:27:27.744Z,81.92
2018-12-05T03:32:30.940Z,90.15
2018-12-05T03:37:34.214Z,90.83
2018-12-05T03:42:37.301Z,93.82
2018-12-05T03:47:40.610Z,89.30
2018-12-05T03:52:43.657Z,102.90
2018-12-05T03:57:47.435Z,85.83
2018-12-05T04:02:50.536Z,86.63
2018-12-05T04:07:53.590Z,89.32
2018-12-05T04:12:56.684Z,90.77
2018-12-05T04:17:59.893Z,114.57
2018-12-05T04:23:03.100Z,76.57
2018-12-05T04:28:06.376Z,78.78
2018-12-05T04:33:09.483Z,88.22
2018-12-05T04:38:12.821Z,78.62
2018-12-05T04:43:16.066Z,73.35
2018-12-05T04:48:19.297Z,57.95
2018-12-05T04:53:22.480Z,73.37
2018-12-05T04:58:25.680Z,51.25
2018-12-05T05:03:28.799Z,63.48
2018-12-05T05:08:32.064Z,66.87
2018-12-05T05:13:35.242Z,136.88
2018-12-05T05:18:38.502Z,130.75
2018-12-05T05:23:41.707Z,116.93
2018-12-05T05:28:44.981Z,121.40
2018-12-05T05:33:48.132Z,108.22
2018-12-05T05:38:51.223Z,94.03
2018-12-05T05:43:54.335Z,90.67
2018-12-05T05:48:57.573Z,77.87
2018-12-05T05:54:00.629Z,84.80
2018-12-05T05:59:04.032Z,76.30
2018-12-05T06:04:07.218Z,19.07
2018-12-05T06:09:10.429Z,79.92
2018-12-05T06:14:13.508Z,79.58
2018-12-05T06:19:16.740Z,33.10
2018-12-05T06:24:19.804Z,24.35
2018-12-05T06:29:22.884Z,17.70
2018-12-05T06:34:25.980Z,42.67
2018-12-05T06:39:29.119Z,16.87
2018-12-05T06:44:32.300Z,9.80
2018-12-05T06:49:35.473Z,7.22
2018-12-05T06:54:38.633Z,9.00
2018-12-05T06:59:41.816Z,10.82
2018-12-05T07:04:44.910Z,6.28
2018-12-05T07:09:48.112Z,11.28
2018-12-05T07:14:51.337Z,9.63
2018-12-05T07:19:54.543Z,5.42
2018-12-05T07:24:57.709Z,11.80
2018-12-05T07:30:00.740Z,13.20
2018-12-05T07:35:04.302Z,12.58
2018-12-05T07:40:07.682Z,13.18
2018-12-05T07:45:11.539Z,12.03
2018-12-05T07:50:15.882Z,14.28
2018-12-05T07:55:19.430Z,13.98
2018-12-05T08:00:22.670Z,16.55
2018-12-05T08:05:26.414Z,15.85
2018-12-05T08:10:29.519Z,15.63
2018-12-05T08:15:32.650Z,18.23
2018-12-05T08:20:36.234Z,14.30
2018-12-05T08:25:40.834Z,13.38
2018-12-05T08:30:44.355Z,13.83
2018-12-05T08:35:47.488Z,13.38
2018-12-05T08:40:50.529Z,11.63
2018-12-05T08:45:53.696Z,15.30
2018-12-05T08:50:57.059Z,14.80
2018-12-05T08:56:00.318Z,15.30
2018-12-05T09:01:03.644Z,11.70
2018-12-05T09:06:06.741Z,14.50
2018-12-05T09:11:10.096Z,11.40
2018-12-05T09:16:14.498Z,11.90
2018-12-05T09:21:18.391Z,12.93
2018-12-05T09:26:21.793Z,13.83
2018-12-05T09:31:24.963Z,12.50
2018-12-05T09:36:28.294Z,16.70
2018-12-05T09:41:31.427Z,14.73
2018-12-05T09:46:34.561Z,16.12
2018-12-05T09:51:37.878Z,17.70
2018-12-05T09:56:41.028Z,15.38
2018-12-05T10:01:44.196Z,11.22
2018-12-05T10:06:47.479Z,14.78
2018-12-05T10:11:50.636Z,14.57
2018-12-05T10:16:53.907Z,14.43
2018-12-05T10:21:57.320Z,8.30
2018-12-05T10:27:00.519Z,12.30
2018-12-05T10:32:05.093Z,8.18
2018-12-05T10:37:09.004Z,4.33
2018-12-05T10:42:12.509Z,5.75
2018-12-05T10:47:15.598Z,6.67
2018-12-05T10:52:18.864Z,3.83
2018-12-05T10:57:22.112Z,7.47
2018-12-05T11:02:30.932Z,3.47
2018-12-05T11:07:39.503Z,2.35
2018-12-05T11:12:48.101Z,4.37
2018-12-05T11:17:56.818Z,2.95
2018-12-05T11:23:05.391Z,4.10
2018-12-05T11:28:08.666Z,3.02
2018-12-05T11:33:11.875Z,3.55
2018-12-05T11:38:15.327Z,4.08
2018-12-05T11:43:18.854Z,5.50
2018-12-05T11:48:22.112Z,4.33
2018-12-05T11:53:25.368Z,2.65
2018-12-05T11:58:28.496Z,3.17
2018-12-05T12:03:31.662Z,2.35
2018-12-05T12:08:36.912Z,2.33
2018-12-05T12:13:40.044Z,2.02
2018-12-05T12:18:43.185Z,1.95
2018-12-05T12:23:46.441Z,1.35
2018-12-05T12:28:49.603Z,1.60
2018-12-05T12:33:52.823Z,2.45
2018-12-05T12:38:56.047Z,3.05
2018-12-05T12:43:59.192Z,2.37
2018-12-05T12:49:02.326Z,4.28
2018-12-05T12:54:05.711Z,1.75
2018-12-05T12:59:08.839Z,5.35
2018-12-05T13:04:11.969Z,6.80
2018-12-05T13:09:15.048Z,6.65
2018-12-05T13:14:18.243Z,9.85
2018-12-05T13:19:21.345Z,8.38
2018-12-05T13:24:24.758Z,5.00
2018-12-05T13:29:28.672Z,3.72
2018-12-05T13:34:31.800Z,4.83
2018-12-05T13:39:35.001Z,5.00
2018-12-05T13:44:39.280Z,10.53
2018-12-05T13:49:42.470Z,2.05
2018-12-05T13:54:45.657Z,3.47
2018-12-05T13:59:48.752Z,6.03
2018-12-05T14:04:52.784Z,4.55
2018-12-05T14:09:55.857Z,4.33
2018-12-05T14:14:59.072Z,5.58
2018-12-05T14:20:02.433Z,8.28
2018-12-05T14:25:07.703Z,7.95
2018-12-05T14:30:11.020Z,8.75
2018-12-05T14:35:14.151Z,10.40
2018-12-05T14:40:17.613Z,7.20
2018-12-05T14:45:20.860Z,4.58
2018-12-05T14:50:25.321Z,6.20
2018-12-05T14:55:28.760Z,7.37
2018-12-05T15:00:31.864Z,5.72
2018-12-05T15:05:34.970Z,6.03
2018-12-05T15:10:38.218Z,12.20
2018-12-05T15:15:41.343Z,7.20
2018-12-05T15:20:44.458Z,11.05
2018-12-05T15:25:47.851Z,13.32
2018-12-05T15:30:51.172Z,13.85
2018-12-05T15:35:54.329Z,7.17
2018-12-05T15:40:57.540Z,9.65
2018-12-05T15:46:00.687Z,14.15
2018-12-05T15:51:03.889Z,8.48
2018-12-05T15:56:07.152Z,13.72
2018-12-05T16:01:10.403Z,15.10
2018-12-05T16:06:13.676Z,13.70
2018-12-05T16:11:16.991Z,17.00
2018-12-05T16:16:20.124Z,17.30
2018-12-05T16:21:23.356Z,14.73
2018-12-05T16:26:26.648Z,23.45
2018-12-05T16:31:29.809Z,16.67
2018-12-05T16:36:33.826Z,17.15
2018-12-05T16:41:37.171Z,11.78
2018-12-05T16:46:41.504Z,18.23
2018-12-05T16:51:44.707Z,14.10
2018-12-05T16:56:47.910Z,16.07
2018-12-05T17:01:51.197Z,15.72
2018-12-05T17:06:54.412Z,18.60
2018-12-05T17:11:57.545Z,9.03
2018-12-05T17:17:00.772Z,13.28
2018-12-05T17:22:04.148Z,21.05
2018-12-05T17:27:07.565Z,6.40
2018-12-05T17:32:10.701Z,2.37
2018-12-05T17:37:13.967Z,11.70
2018-12-05T17:42:17.308Z,17.17
2018-12-05T17:47:20.646Z,18.87
2018-12-05T17:52:23.792Z,15.72
2018-12-05T17:57:27.312Z,54.38
2018-12-05T18:02:30.642Z,17.35
2018-12-05T18:07:33.761Z,16.57
2018-12-05T18:12:37.448Z,10.28
2018-12-05T18:17:40.557Z,18.30
2018-12-05T18:22:44.084Z,17.85
2018-12-05T18:27:47.358Z,32.17
2018-12-05T18:32:50.498Z,33.20
2018-12-05T18:37:53.752Z,24.60
2018-12-05T18:42:56.936Z,22.32
2018-12-05T18:48:01.069Z,15.32
2018-12-05T18:53:04.147Z,16.50
2018-12-05T18:58:07.477Z,16.15
2018-12-05T19:03:10.599Z,5.90
2018-12-05T19:08:13.789Z,2.20
2018-12-05T19:13:17.150Z,8.60
2018-12-05T19:18:20.470Z,3.72
2018-12-05T19:23:23.616Z,13.05
2018-12-05T19:28:27.116Z,12.35
2018-12-05T19:33:30.364Z,26.10
2018-12-05T19:38:33.483Z,7.42
2018-12-05T19:43:36.527Z,15.32
2018-12-05T19:48:39.933Z,16.95
2018-12-05T19:53:43.136Z,3.62
2018-12-05T19:58:46.465Z,8.13
2018-12-05T20:03:49.671Z,13.98
2018-12-05T20:08:52.843Z,12.85
2018-12-05T20:13:56.080Z,13.62
2018-12-05T20:18:59.130Z,7.47
2018-12-05T20:24:02.360Z,4.15
2018-12-05T20:29:06.955Z,26.05
2018-12-05T20:34:10.670Z,20.88
2018-12-05T20:39:14.133Z,5.80
2018-12-05T20:44:17.295Z,3.40
2018-12-05T20:49:20.582Z,10.82
2018-12-05T20:54:23.940Z,2.85
2018-12-05T20:59:27.219Z,8.30
2018-12-05T21:04:30.558Z,4.62
2018-12-05T21:09:33.708Z,7.00
2018-12-05T21:14:36.988Z,7.20
2018-12-05T21:19:40.325Z,10.80
2018-12-05T21:24:43.567Z,14.38
2018-12-05T21:29:46.813Z,9.18
2018-12-05T21:34:49.872Z,11.63
2018-12-05T21:39:53.207Z,16.52
2018-12-05T21:44:56.419Z,15.15
2018-12-05T21:49:59.715Z,15.45
2018-12-05T21:55:03.259Z,18.80
2018-12-05T22:00:09.952Z,17.27
2018-12-05T22:05:13.779Z,22.20
2018-12-05T22:10:16.853Z,20.43
2018-12-05T22:15:20.139Z,17.30
2018-12-05T22:20:23.247Z,15.90
2018-12-05T22:25:26.372Z,18.07
2018-12-05T22:30:29.701Z,15.60
2018-12-05T22:35:33.026Z,22.82
2018-12-05T22:40:36.148Z,18.10
2018-12-05T22:45:39.434Z,20.68
2018-12-05T22:50:42.594Z,19.17
2018-12-05T22:55:45.850Z,19.77
2018-12-05T23:00:54.261Z,18.65
2018-12-05T23:05:57.597Z,22.70
2018-12-05T23:11:02.177Z,20.72
2018-12-05T23:16:05.584Z,18.73
2018-12-05T23:21:08.709Z,17.73
2018-12-05T23:26:11.791Z,19.20
2018-12-05T23:31:14.965Z,23.57
2018-12-05T23:36:18.520Z,20.00
2018-12-05T23:41:21.672Z,14.53
2018-12-05T23:46:24.785Z,19.17
2018-12-05T23:51:27.969Z,14.03
2018-12-05T23:56:31.104Z,18.07
